sensor_id;sensor_type;location;lat;lon;timestamp;temperature;humidity
4079;DHT22;2054;47.858;11.156;2024-02-15T03:47:27;6.90;99.90
4079;DHT22;2054;47.858;11.156;2024-02-15T03:49:54;6.80;99.90
4079;DHT22;2054;47.858;11.156;2024-02-15T03:52:22;6.80;99.90
4079;DHT22;2054;47.858;11.156;2024-02-15T03:54:49;6.80;99.90
4079;DHT22;2054;47.858;11.156;2024-02-15T03:57:16;6.70;99.90
4079;DHT22;2054;47.858;11.156;2024-02-15T03:59:43;6.70;99.90
4079;DHT22;2054;47.858;11.156;2024-02-15T04:02:15;6.60;99.90
4079;DHT22;2054;47.858;11.156;2024-02-15T04:04:43;6.60;99.90
4079;DHT22;2054;47.858;11.156;2024-02-15T04:07:13;6.50;99.90
4079;DHT22;2054;47.858;11.156;2024-02-15T04:09:40;6.40;99.90
4079;DHT22;2054;47.858;11.156;2024-02-15T04:12:07;6.30;99.90
4079;DHT22;2054;47.858;11.156;2024-02-15T04:14:34;6.30;99.90
4079;DHT22;2054;47.858;11.156;2024-02-15T04:17:01;6.30;99.90
4079;DHT22;2054;47.858;11.156;2024-02-15T04:19:31;6.20;99.90
4079;DHT22;2054;47.858;11.156;2024-02-15T04:21:59;6.10;99.90
4079;DHT22;2054;47.858;11.156;2024-02-15T04:24:29;6.10;99.90
4079;DHT22;2054;47.858;11.156;2024-02-15T04:26:57;6.00;99.90
4079;DHT22;2054;47.858;11.156;2024-02-15T04:29:24;5.90;99.90
4079;DHT22;2054;47.858;11.156;2024-02-15T04:31:51;5.80;99.90
4079;DHT22;2054;47.858;11.156;2024-02-15T04:34:20;5.70;99.90
4079;DHT22;2054;47.858;11.156;2024-02-15T04:36:48;5.60;99.90
4079;DHT22;2054;47.858;11.156;2024-02-15T04:39:17;5.50;99.90
4079;DHT22;2054;47.858;11.156;2024-02-15T04:41:50;5.50;99.90
4079;DHT22;2054;47.858;11.156;2024-02-15T04:44:17;5.50;99.90
4079;DHT22;2054;47.858;11.156;2024-02-15T04:46:45;5.40;99.90
4079;DHT22;2054;47.858;11.156;2024-02-15T04:49:12;5.40;99.90
4079;DHT22;2054;47.858;11.156;2024-02-15T04:51:41;5.20;99.90
4079;DHT22;2054;47.858;11.156;2024-02-15T04:54:09;5.30;99.90
4079;DHT22;2054;47.858;11.156;2024-02-15T04:56:40;5.40;99.90
4079;DHT22;2054;47.858;11.156;2024-02-15T04:59:08;5.20;99.90
4079;DHT22;2054;47.858;11.156;2024-02-15T05:01:37;5.20;99.90
4079;DHT22;2054;47.858;11.156;2024-02-15T05:04:07;5.10;99.90
4079;DHT22;2054;47.858;11.156;2024-02-15T05:06:34;5.10;99.90
4079;DHT22;2054;47.858;11.156;2024-02-15T05:09:02;5.10;99.90
4079;DHT22;2054;47.858;11.156;2024-02-15T05:11:33;5.10;99.90
4079;DHT22;2054;47.858;11.156;2024-02-15T05:14:02;5.00;99.90
4079;DHT22;2054;47.858;11.156;2024-02-15T05:16:32;5.00;99.90
4079;DHT22;2054;47.858;11.156;2024-02-15T05:19:01;4.90;99.90
4079;DHT22;2054;47.858;11.156;2024-02-15T05:21:28;4.90;99.90
4079;DHT22;2054;47.858;11.156;2024-02-15T05:23:55;4.90;99.90
4079;DHT22;2054;47.858;11.156;2024-02-15T05:26:23;4.80;99.90
4079;DHT22;2054;47.858;11.156;2024-02-15T05:28:50;4.80;99.90
4079;DHT22;2054;47.858;11.156;2024-02-15T05:31:19;4.70;99.90
4079;DHT22;2054;47.858;11.156;2024-02-15T05:33:51;4.70;99.90
4079;DHT22;2054;47.858;11.156;2024-02-15T05:36:20;4.60;99.90
4079;DHT22;2054;47.858;11.156;2024-02-15T05:38:53;4.60;99.90
4079;DHT22;2054;47.858;11.156;2024-02-15T05:41:20;4.60;99.90
4079;DHT22;2054;47.858;11.156;2024-02-15T05:43:48;4.60;99.90
4079;DHT22;2054;47.858;11.156;2024-02-15T05:46:15;4.60;99.90
4079;DHT22;2054;47.858;11.156;2024-02-15T05:48:44;4.60;99.90
4079;DHT22;2054;47.858;11.156;2024-02-15T05:51:11;4.60;99.90
4079;DHT22;2054;47.858;11.156;2024-02-15T05:53:39;4.50;99.90
4079;DHT22;2054;47.858;11.156;2024-02-15T05:56:07;4.50;99.90
4079;DHT22;2054;47.858;11.156;2024-02-15T05:58:35;4.50;99.90
4079;DHT22;2054;47.858;11.156;2024-02-15T06:01:03;4.50;99.90
4079;DHT22;2054;47.858;11.156;2024-02-15T06:03:33;4.50;99.90
4079;DHT22;2054;47.858;11.156;2024-02-15T06:06:04;4.40;99.90
4079;DHT22;2054;47.858;11.156;2024-02-15T06:08:33;4.40;99.90
4079;DHT22;2054;47.858;11.156;2024-02-15T06:11:01;4.40;99.90
4079;DHT22;2054;47.858;11.156;2024-02-15T06:13:29;4.30;99.90
4079;DHT22;2054;47.858;11.156;2024-02-15T06:15:56;4.30;99.90
4079;DHT22;2054;47.858;11.156;2024-02-15T06:18:24;4.20;99.90
4079;DHT22;2054;47.858;11.156;2024-02-15T06:20:53;4.20;99.90
4079;DHT22;2054;47.858;11.156;2024-02-15T06:23:24;4.30;99.90
4079;DHT22;2054;47.858;11.156;2024-02-15T06:25:52;4.30;99.90
4079;DHT22;2054;47.858;11.156;2024-02-15T06:28:20;4.30;99.90
4079;DHT22;2054;47.858;11.156;2024-02-15T06:31:11;4.30;99.90
4079;DHT22;2054;47.858;11.156;2024-02-15T06:33:55;4.20;99.90
4079;DHT22;2054;47.858;11.156;2024-02-15T06:36:40;4.20;99.90
4079;DHT22;2054;47.858;11.156;2024-02-15T06:39:26;4.10;99.90
4079;DHT22;2054;47.858;11.156;2024-02-15T06:42:08;4.10;99.90
4079;DHT22;2054;47.858;11.156;2024-02-15T06:44:35;4.10;99.90
4079;DHT22;2054;47.858;11.156;2024-02-15T06:47:02;4.10;99.90
4079;DHT22;2054;47.858;11.156;2024-02-15T06:49:29;4.10;99.90
4079;DHT22;2054;47.858;11.156;2024-02-15T06:51:56;4.10;99.90
4079;DHT22;2054;47.858;11.156;2024-02-15T06:54:26;4.20;99.90
4079;DHT22;2054;47.858;11.156;2024-02-15T06:56:53;4.20;99.90
4079;DHT22;2054;47.858;11.156;2024-02-15T06:59:20;4.10;99.90
4079;DHT22;2054;47.858;11.156;2024-02-15T07:01:48;4.10;99.90
4079;DHT22;2054;47.858;11.156;2024-02-15T07:04:14;4.10;99.90
4079;DHT22;2054;47.858;11.156;2024-02-15T07:06:42;4.20;99.90
4079;DHT22;2054;47.858;11.156;2024-02-15T07:09:10;4.20;99.90
4079;DHT22;2054;47.858;11.156;2024-02-15T07:11:44;4.30;99.90
4079;DHT22;2054;47.858;11.156;2024-02-15T07:14:11;4.30;99.90
4079;DHT22;2054;47.858;11.156;2024-02-15T07:16:39;4.40;99.90
4079;DHT22;2054;47.858;11.156;2024-02-15T07:19:06;4.40;99.90
4079;DHT22;2054;47.858;11.156;2024-02-15T07:21:34;4.30;99.90
4079;DHT22;2054;47.858;11.156;2024-02-15T07:24:02;4.40;99.90
4079;DHT22;2054;47.858;11.156;2024-02-15T07:26:30;4.40;99.90
4079;DHT22;2054;47.858;11.156;2024-02-15T07:29:00;4.40;99.90
4079;DHT22;2054;47.858;11.156;2024-02-15T07:31:28;4.60;99.90
4079;DHT22;2054;47.858;11.156;2024-02-15T07:33:56;4.60;99.90
4079;DHT22;2054;47.858;11.156;2024-02-15T07:36:23;4.70;99.90
4079;DHT22;2054;47.858;11.156;2024-02-15T07:38:51;4.80;99.90
4079;DHT22;2054;47.858;11.156;2024-02-15T07:41:19;5.00;99.90
4079;DHT22;2054;47.858;11.156;2024-02-15T07:43:47;5.10;99.90
4079;DHT22;2054;47.858;11.156;2024-02-15T07:46:18;5.30;99.90
4079;DHT22;2054;47.858;11.156;2024-02-15T07:48:45;5.40;99.90
4079;DHT22;2054;47.858;11.156;2024-02-15T07:51:14;5.50;99.90
4079;DHT22;2054;47.858;11.156;2024-02-15T07:53:42;5.60;99.90
4079;DHT22;2054;47.858;11.156;2024-02-15T07:56:09;5.70;99.90
4079;DHT22;2054;47.858;11.156;2024-02-15T07:58:38;5.70;99.90
4079;DHT22;2054;47.858;11.156;2024-02-15T08:01:10;5.80;99.90
4079;DHT22;2054;47.858;11.156;2024-02-15T08:03:39;5.90;99.90
4079;DHT22;2054;47.858;11.156;2024-02-15T08:06:10;6.10;99.90
4079;DHT22;2054;47.858;11.156;2024-02-15T08:08:38;6.20;99.90
4079;DHT22;2054;47.858;11.156;2024-02-15T08:11:06;6.40;99.90
4079;DHT22;2054;47.858;11.156;2024-02-15T08:13:40;6.50;99.90
4079;DHT22;2054;47.858;11.156;2024-02-15T08:16:07;6.60;99.90
4079;DHT22;2054;47.858;11.156;2024-02-15T08:18:35;6.70;99.90
4079;DHT22;2054;47.858;11.156;2024-02-15T08:21:04;6.80;99.90
4079;DHT22;2054;47.858;11.156;2024-02-15T08:23:31;7.10;99.90
4079;DHT22;2054;47.858;11.156;2024-02-15T08:25:58;7.20;99.90
4079;DHT22;2054;47.858;11.156;2024-02-15T08:28:25;7.30;99.90
4079;DHT22;2054;47.858;11.156;2024-02-15T08:30:54;7.50;99.90
4079;DHT22;2054;47.858;11.156;2024-02-15T08:33:22;7.50;99.90
4079;DHT22;2054;47.858;11.156;2024-02-15T08:35:49;7.70;99.90
4079;DHT22;2054;47.858;11.156;2024-02-15T08:38:18;7.90;99.90
4079;DHT22;2054;47.858;11.156;2024-02-15T08:40:46;8.00;99.90
4079;DHT22;2054;47.858;11.156;2024-02-15T08:43:14;8.10;99.90
4079;DHT22;2054;47.858;11.156;2024-02-15T08:45:42;8.30;99.90
4079;DHT22;2054;47.858;11.156;2024-02-15T08:48:09;8.40;99.90
4079;DHT22;2054;47.858;11.156;2024-02-15T08:50:36;8.60;99.90
4079;DHT22;2054;47.858;11.156;2024-02-15T08:53:03;8.90;99.90
4079;DHT22;2054;47.858;11.156;2024-02-15T08:55:33;8.80;99.90
4079;DHT22;2054;47.858;11.156;2024-02-15T08:58:01;8.90;99.90
4079;DHT22;2054;47.858;11.156;2024-02-15T09:00:29;8.90;99.90
4079;DHT22;2054;47.858;11.156;2024-02-15T09:02:58;8.90;99.90
4079;DHT22;2054;47.858;11.156;2024-02-15T09:05:26;8.90;99.90
4079;DHT22;2054;47.858;11.156;2024-02-15T09:07:54;9.00;99.90
4079;DHT22;2054;47.858;11.156;2024-02-15T09:10:21;9.10;99.90
4079;DHT22;2054;47.858;11.156;2024-02-15T09:12:50;9.20;99.90
4079;DHT22;2054;47.858;11.156;2024-02-15T09:15:17;9.30;99.90
4079;DHT22;2054;47.858;11.156;2024-02-15T09:17:44;9.40;99.90
4079;DHT22;2054;47.858;11.156;2024-02-15T09:20:12;9.50;99.90
4079;DHT22;2054;47.858;11.156;2024-02-15T09:22:41;9.70;99.90
4079;DHT22;2054;47.858;11.156;2024-02-15T09:25:09;9.70;99.90
4079;DHT22;2054;47.858;11.156;2024-02-15T09:27:36;9.80;99.90
4079;DHT22;2054;47.858;11.156;2024-02-15T09:30:07;9.90;99.90
4079;DHT22;2054;47.858;11.156;2024-02-15T09:32:35;10.20;99.90
4079;DHT22;2054;47.858;11.156;2024-02-15T09:35:02;10.30;99.90
4079;DHT22;2054;47.858;11.156;2024-02-15T09:37:29;10.50;99.90
4079;DHT22;2054;47.858;11.156;2024-02-15T09:39:56;10.60;99.90
4079;DHT22;2054;47.858;11.156;2024-02-15T09:42:24;10.70;99.90
4079;DHT22;2054;47.858;11.156;2024-02-15T09:44:51;10.80;99.90
4079;DHT22;2054;47.858;11.156;2024-02-15T09:47:20;10.80;99.90
4079;DHT22;2054;47.858;11.156;2024-02-15T09:49:49;11.00;99.90
4079;DHT22;2054;47.858;11.156;2024-02-15T09:52:16;11.00;99.90
4079;DHT22;2054;47.858;11.156;2024-02-15T09:54:43;11.40;99.90
4079;DHT22;2054;47.858;11.156;2024-02-15T09:57:11;11.40;99.90
4079;DHT22;2054;47.858;11.156;2024-02-15T09:59:40;11.60;99.90
4079;DHT22;2054;47.858;11.156;2024-02-15T10:02:15;11.50;99.90
4079;DHT22;2054;47.858;11.156;2024-02-15T10:04:48;11.60;99.90
4079;DHT22;2054;47.858;11.156;2024-02-15T10:07:18;11.70;99.90
4079;DHT22;2054;47.858;11.156;2024-02-15T10:09:44;11.70;99.90
4079;DHT22;2054;47.858;11.156;2024-02-15T10:12:11;11.80;99.90
4079;DHT22;2054;47.858;11.156;2024-02-15T10:14:48;11.90;99.90
4079;DHT22;2054;47.858;11.156;2024-02-15T10:17:18;12.00;99.90
4079;DHT22;2054;47.858;11.156;2024-02-15T10:20:04;12.00;99.90
4079;DHT22;2054;47.858;11.156;2024-02-15T10:22:32;12.10;99.90
4079;DHT22;2054;47.858;11.156;2024-02-15T10:25:12;12.30;99.90
4079;DHT22;2054;47.858;11.156;2024-02-15T10:27:41;12.40;99.90
4079;DHT22;2054;47.858;11.156;2024-02-15T10:30:16;12.50;99.90
4079;DHT22;2054;47.858;11.156;2024-02-15T10:32:43;12.60;99.90
4079;DHT22;2054;47.858;11.156;2024-02-15T10:35:19;12.60;99.90
4079;DHT22;2054;47.858;11.156;2024-02-15T10:37:47;12.60;99.90
4079;DHT22;2054;47.858;11.156;2024-02-15T10:40:17;12.70;99.90
4079;DHT22;2054;47.858;11.156;2024-02-15T10:42:47;12.70;99.90
4079;DHT22;2054;47.858;11.156;2024-02-15T10:45:15;12.70;99.90
4079;DHT22;2054;47.858;11.156;2024-02-15T10:47:44;12.80;99.90
4079;DHT22;2054;47.858;11.156;2024-02-15T10:50:14;13.00;99.90
4079;DHT22;2054;47.858;11.156;2024-02-15T10:52:54;13.10;99.90
4079;DHT22;2054;47.858;11.156;2024-02-15T10:55:28;13.20;99.90
4079;DHT22;2054;47.858;11.156;2024-02-15T10:58:01;13.40;99.90
4079;DHT22;2054;47.858;11.156;2024-02-15T11:00:32;13.40;99.90
4079;DHT22;2054;47.858;11.156;2024-02-15T11:03:03;13.70;99.90
4079;DHT22;2054;47.858;11.156;2024-02-15T11:05:36;13.80;99.90
4079;DHT22;2054;47.858;11.156;2024-02-15T11:08:05;14.00;99.90
4079;DHT22;2054;47.858;11.156;2024-02-15T11:10:34;14.20;99.90
4079;DHT22;2054;47.858;11.156;2024-02-15T11:13:02;14.30;99.90
4079;DHT22;2054;47.858;11.156;2024-02-15T11:15:44;14.50;99.90
4079;DHT22;2054;47.858;11.156;2024-02-15T11:18:42;14.50;99.90
4079;DHT22;2054;47.858;11.156;2024-02-15T11:21:12;14.60;99.90
4079;DHT22;2054;47.858;11.156;2024-02-15T11:23:39;14.80;99.90
4079;DHT22;2054;47.858;11.156;2024-02-15T11:26:09;14.80;99.90
4079;DHT22;2054;47.858;11.156;2024-02-15T11:28:43;14.90;99.90
4079;DHT22;2054;47.858;11.156;2024-02-15T11:31:53;14.90;99.90
4079;DHT22;2054;47.858;11.156;2024-02-15T11:34:41;15.00;99.90
4079;DHT22;2054;47.858;11.156;2024-02-15T11:40:19;15.20;99.90
4079;DHT22;2054;47.858;11.156;2024-02-15T11:42:52;15.30;99.90
4079;DHT22;2054;47.858;11.156;2024-02-15T11:45:20;15.40;99.90
4079;DHT22;2054;47.858;11.156;2024-02-15T11:47:49;15.40;99.90
4079;DHT22;2054;47.858;11.156;2024-02-15T11:50:19;15.50;99.90
4079;DHT22;2054;47.858;11.156;2024-02-15T11:52:50;15.70;99.90
4079;DHT22;2054;47.858;11.156;2024-02-15T11:55:21;15.80;99.90
4079;DHT22;2054;47.858;11.156;2024-02-15T11:57:55;16.00;99.90
4079;DHT22;2054;47.858;11.156;2024-02-15T12:00:28;16.20;99.90
4079;DHT22;2054;47.858;11.156;2024-02-15T12:03:14;16.50;99.90
4079;DHT22;2054;47.858;11.156;2024-02-15T12:05:59;16.70;99.90
4079;DHT22;2054;47.858;11.156;2024-02-15T12:08:46;16.80;99.90
4079;DHT22;2054;47.858;11.156;2024-02-15T12:11:31;16.80;99.90
4079;DHT22;2054;47.858;11.156;2024-02-15T12:14:15;16.80;99.90
4079;DHT22;2054;47.858;11.156;2024-02-15T12:17:01;16.80;99.90
4079;DHT22;2054;47.858;11.156;2024-02-15T12:19:48;16.80;99.90
4079;DHT22;2054;47.858;11.156;2024-02-15T12:22:20;16.80;99.90
4079;DHT22;2054;47.858;11.156;2024-02-15T12:24:56;16.90;99.90
4079;DHT22;2054;47.858;11.156;2024-02-15T12:27:24;17.00;99.90
4079;DHT22;2054;47.858;11.156;2024-02-15T12:29:56;17.00;99.90
4079;DHT22;2054;47.858;11.156;2024-02-15T12:32:24;16.90;99.90
4079;DHT22;2054;47.858;11.156;2024-02-15T12:34:51;17.00;99.90
4079;DHT22;2054;47.858;11.156;2024-02-15T12:37:19;17.00;99.90
4079;DHT22;2054;47.858;11.156;2024-02-15T12:39:48;17.10;99.70
4079;DHT22;2054;47.858;11.156;2024-02-15T12:42:18;17.10;99.80
4079;DHT22;2054;47.858;11.156;2024-02-15T12:44:48;17.10;99.50
4079;DHT22;2054;47.858;11.156;2024-02-15T12:47:19;17.10;99.30
4079;DHT22;2054;47.858;11.156;2024-02-15T12:49:49;17.10;99.10
4079;DHT22;2054;47.858;11.156;2024-02-15T12:52:35;17.10;99.10
4079;DHT22;2054;47.858;11.156;2024-02-15T12:58:05;17.00;99.30
4079;DHT22;2054;47.858;11.156;2024-02-15T13:00:36;17.10;98.60
4079;DHT22;2054;47.858;11.156;2024-02-15T13:03:07;17.20;98.90
4079;DHT22;2054;47.858;11.156;2024-02-15T13:05:39;17.20;98.60
4079;DHT22;2054;47.858;11.156;2024-02-15T13:08:07;17.10;99.30
4079;DHT22;2054;47.858;11.156;2024-02-15T13:10:38;17.20;99.00
4079;DHT22;2054;47.858;11.156;2024-02-15T13:13:07;17.20;99.10
4079;DHT22;2054;47.858;11.156;2024-02-15T13:15:35;17.20;98.30
4079;DHT22;2054;47.858;11.156;2024-02-15T13:18:03;17.20;98.30
4079;DHT22;2054;47.858;11.156;2024-02-15T13:20:31;17.20;99.20
4079;DHT22;2054;47.858;11.156;2024-02-15T13:23:00;17.10;98.50
4079;DHT22;2054;47.858;11.156;2024-02-15T13:25:28;17.00;99.30
4079;DHT22;2054;47.858;11.156;2024-02-15T13:27:55;17.00;98.70
4079;DHT22;2054;47.858;11.156;2024-02-15T13:30:26;16.90;98.40
4079;DHT22;2054;47.858;11.156;2024-02-15T13:32:54;16.80;98.10
4079;DHT22;2054;47.858;11.156;2024-02-15T13:35:21;16.90;98.20
4079;DHT22;2054;47.858;11.156;2024-02-15T13:37:50;17.00;98.70
4079;DHT22;2054;47.858;11.156;2024-02-15T13:40:19;17.00;99.10
4079;DHT22;2054;47.858;11.156;2024-02-15T13:42:50;17.10;99.10
4079;DHT22;2054;47.858;11.156;2024-02-15T13:45:21;17.10;98.00
4079;DHT22;2054;47.858;11.156;2024-02-15T13:47:51;17.10;98.10
4079;DHT22;2054;47.858;11.156;2024-02-15T13:50:19;17.00;98.40
4079;DHT22;2054;47.858;11.156;2024-02-15T13:52:46;16.90;98.10
4079;DHT22;2054;47.858;11.156;2024-02-15T13:55:16;17.00;98.00
4079;DHT22;2054;47.858;11.156;2024-02-15T13:57:45;17.00;97.90
4079;DHT22;2054;47.858;11.156;2024-02-15T14:00:13;17.00;97.00
4079;DHT22;2054;47.858;11.156;2024-02-15T14:02:47;17.00;97.10
4079;DHT22;2054;47.858;11.156;2024-02-15T14:05:15;17.10;97.00
4079;DHT22;2054;47.858;11.156;2024-02-15T14:07:46;17.20;96.60
4079;DHT22;2054;47.858;11.156;2024-02-15T14:10:13;17.20;96.50
4079;DHT22;2054;47.858;11.156;2024-02-15T14:12:40;17.30;97.20
4079;DHT22;2054;47.858;11.156;2024-02-15T14:15:08;17.20;97.50
4079;DHT22;2054;47.858;11.156;2024-02-15T14:17:35;17.20;97.40
4079;DHT22;2054;47.858;11.156;2024-02-15T14:20:04;17.20;96.80
4079;DHT22;2054;47.858;11.156;2024-02-15T14:22:35;17.30;96.00
4079;DHT22;2054;47.858;11.156;2024-02-15T14:25:04;17.20;96.10
4079;DHT22;2054;47.858;11.156;2024-02-15T14:27:31;17.30;96.60
4079;DHT22;2054;47.858;11.156;2024-02-15T14:30:00;17.30;96.70
4079;DHT22;2054;47.858;11.156;2024-02-15T14:32:45;17.30;96.60
4079;DHT22;2054;47.858;11.156;2024-02-15T14:35:30;17.30;96.20
4079;DHT22;2054;47.858;11.156;2024-02-15T14:38:03;17.30;95.70
4079;DHT22;2054;47.858;11.156;2024-02-15T14:40:33;17.30;95.60
4079;DHT22;2054;47.858;11.156;2024-02-15T14:43:00;17.30;95.80
4079;DHT22;2054;47.858;11.156;2024-02-15T14:45:27;17.20;96.20
4079;DHT22;2054;47.858;11.156;2024-02-15T14:47:54;17.30;95.70
4079;DHT22;2054;47.858;11.156;2024-02-15T14:50:21;17.30;95.50
4079;DHT22;2054;47.858;11.156;2024-02-15T14:52:49;17.20;94.80
4079;DHT22;2054;47.858;11.156;2024-02-15T14:55:19;17.20;96.80
4079;DHT22;2054;47.858;11.156;2024-02-15T14:57:46;17.20;98.70
4079;DHT22;2054;47.858;11.156;2024-02-15T15:00:14;17.10;98.80
4079;DHT22;2054;47.858;11.156;2024-02-15T15:02:43;17.00;98.70
4079;DHT22;2054;47.858;11.156;2024-02-15T15:05:12;17.00;99.10
4079;DHT22;2054;47.858;11.156;2024-02-15T15:07:56;16.90;99.40
4079;DHT22;2054;47.858;11.156;2024-02-15T15:10:45;16.70;99.20
4079;DHT22;2054;47.858;11.156;2024-02-15T15:13:29;16.60;98.70
4079;DHT22;2054;47.858;11.156;2024-02-15T15:15:57;16.50;98.80
4079;DHT22;2054;47.858;11.156;2024-02-15T15:18:25;16.50;99.00
4079;DHT22;2054;47.858;11.156;2024-02-15T15:20:53;16.40;98.50
4079;DHT22;2054;47.858;11.156;2024-02-15T15:23:20;16.40;98.80
4079;DHT22;2054;47.858;11.156;2024-02-15T15:25:49;16.30;99.90
4079;DHT22;2054;47.858;11.156;2024-02-15T15:28:16;16.30;99.90
4079;DHT22;2054;47.858;11.156;2024-02-15T15:30:44;16.20;99.90
4079;DHT22;2054;47.858;11.156;2024-02-15T15:33:14;16.10;99.90
4079;DHT22;2054;47.858;11.156;2024-02-15T15:35:41;16.10;99.90
4079;DHT22;2054;47.858;11.156;2024-02-15T15:38:08;15.90;99.90
4079;DHT22;2054;47.858;11.156;2024-02-15T15:40:35;15.80;99.90
4079;DHT22;2054;47.858;11.156;2024-02-15T15:43:04;15.80;99.90
4079;DHT22;2054;47.858;11.156;2024-02-15T15:45:32;15.80;99.90
4079;DHT22;2054;47.858;11.156;2024-02-15T15:47:59;15.60;99.90
4079;DHT22;2054;47.858;11.156;2024-02-15T15:50:26;15.40;99.90
4079;DHT22;2054;47.858;11.156;2024-02-15T15:52:54;15.30;99.90
4079;DHT22;2054;47.858;11.156;2024-02-15T15:55:22;15.10;99.90
4079;DHT22;2054;47.858;11.156;2024-02-15T15:57:49;15.10;99.90
4079;DHT22;2054;47.858;11.156;2024-02-15T16:00:19;15.00;99.90
4079;DHT22;2054;47.858;11.156;2024-02-15T16:02:46;14.90;99.90
4079;DHT22;2054;47.858;11.156;2024-02-15T16:05:14;14.70;99.90
4079;DHT22;2054;47.858;11.156;2024-02-15T16:07:42;14.70;99.90
4079;DHT22;2054;47.858;11.156;2024-02-15T16:10:10;14.60;99.90
4079;DHT22;2054;47.858;11.156;2024-02-15T16:12:38;14.50;99.90
4079;DHT22;2054;47.858;11.156;2024-02-15T16:15:06;14.50;99.90
4079;DHT22;2054;47.858;11.156;2024-02-15T16:17:36;14.40;99.90
4079;DHT22;2054;47.858;11.156;2024-02-15T16:20:06;14.30;99.90
4079;DHT22;2054;47.858;11.156;2024-02-15T16:22:34;14.10;99.90
4079;DHT22;2054;47.858;11.156;2024-02-15T16:25:04;14.00;99.90
4079;DHT22;2054;47.858;11.156;2024-02-15T16:27:35;14.00;99.90
4079;DHT22;2054;47.858;11.156;2024-02-15T16:30:03;13.90;99.90
4079;DHT22;2054;47.858;11.156;2024-02-15T16:32:35;13.80;99.90
4079;DHT22;2054;47.858;11.156;2024-02-15T16:35:04;13.60;99.90
4079;DHT22;2054;47.858;11.156;2024-02-15T16:37:35;13.50;99.90
4079;DHT22;2054;47.858;11.156;2024-02-15T16:40:05;13.40;99.90
4079;DHT22;2054;47.858;11.156;2024-02-15T16:42:33;13.30;99.90
4079;DHT22;2054;47.858;11.156;2024-02-15T16:45:03;13.20;99.90
4079;DHT22;2054;47.858;11.156;2024-02-15T16:47:31;13.10;99.90
4079;DHT22;2054;47.858;11.156;2024-02-15T16:50:02;12.90;99.90
4079;DHT22;2054;47.858;11.156;2024-02-15T16:52:34;12.80;99.90
4079;DHT22;2054;47.858;11.156;2024-02-15T16:55:03;12.70;99.90
4079;DHT22;2054;47.858;11.156;2024-02-15T16:57:32;12.60;99.90
4079;DHT22;2054;47.858;11.156;2024-02-15T16:59:59;12.50;99.90
4079;DHT22;2054;47.858;11.156;2024-02-15T17:02:30;12.40;99.90
4079;DHT22;2054;47.858;11.156;2024-02-15T17:04:57;12.30;99.90
4079;DHT22;2054;47.858;11.156;2024-02-15T17:07:27;12.20;99.90
4079;DHT22;2054;47.858;11.156;2024-02-15T17:09:54;12.10;99.90
4079;DHT22;2054;47.858;11.156;2024-02-15T17:12:21;12.00;99.90
4079;DHT22;2054;47.858;11.156;2024-02-15T17:14:48;11.90;99.90
4079;DHT22;2054;47.858;11.156;2024-02-15T17:17:15;11.80;99.90
4079;DHT22;2054;47.858;11.156;2024-02-15T17:19:43;11.70;99.90
4079;DHT22;2054;47.858;11.156;2024-02-15T17:22:11;11.50;99.90
4079;DHT22;2054;47.858;11.156;2024-02-15T17:24:41;11.40;99.90
4079;DHT22;2054;47.858;11.156;2024-02-15T17:27:10;11.30;99.90
4079;DHT22;2054;47.858;11.156;2024-02-15T17:29:37;11.20;99.90
4079;DHT22;2054;47.858;11.156;2024-02-15T17:32:05;11.20;99.90
4079;DHT22;2054;47.858;11.156;2024-02-15T17:34:33;11.10;99.90
4079;DHT22;2054;47.858;11.156;2024-02-15T17:37:00;11.00;99.90
4079;DHT22;2054;47.858;11.156;2024-02-15T17:39:27;11.00;99.90
4079;DHT22;2054;47.858;11.156;2024-02-15T17:41:56;10.90;99.90
4079;DHT22;2054;47.858;11.156;2024-02-15T17:44:23;10.90;99.90
4079;DHT22;2054;47.858;11.156;2024-02-15T17:46:50;10.80;99.90
4079;DHT22;2054;47.858;11.156;2024-02-15T17:49:19;10.70;99.90
4079;DHT22;2054;47.858;11.156;2024-02-15T17:51:46;10.70;99.90
4079;DHT22;2054;47.858;11.156;2024-02-15T17:54:13;10.70;99.90
4079;DHT22;2054;47.858;11.156;2024-02-15T17:56:41;10.60;99.90
4079;DHT22;2054;47.858;11.156;2024-02-15T17:59:10;10.60;99.90
4079;DHT22;2054;47.858;11.156;2024-02-15T18:01:38;10.50;99.90
4079;DHT22;2054;47.858;11.156;2024-02-15T18:04:05;10.40;99.90
4079;DHT22;2054;47.858;11.156;2024-02-15T18:06:33;10.30;99.90
4079;DHT22;2054;47.858;11.156;2024-02-15T18:09:00;10.20;99.90
4079;DHT22;2054;47.858;11.156;2024-02-15T18:11:34;10.10;99.90
4079;DHT22;2054;47.858;11.156;2024-02-15T18:14:01;10.10;99.90
4079;DHT22;2054;47.858;11.156;2024-02-15T18:16:29;10.00;99.90
4079;DHT22;2054;47.858;11.156;2024-02-15T18:18:57;9.90;99.90
4079;DHT22;2054;47.858;11.156;2024-02-15T18:21:24;9.90;99.90
4079;DHT22;2054;47.858;11.156;2024-02-15T18:23:52;10.00;99.90
4079;DHT22;2054;47.858;11.156;2024-02-15T18:26:20;9.70;99.90
4079;DHT22;2054;47.858;11.156;2024-02-15T18:28:48;9.60;99.90
4079;DHT22;2054;47.858;11.156;2024-02-15T18:31:15;9.60;99.90
4079;DHT22;2054;47.858;11.156;2024-02-15T18:33:44;9.50;99.90
4079;DHT22;2054;47.858;11.156;2024-02-15T18:36:11;9.40;99.90
4079;DHT22;2054;47.858;11.156;2024-02-15T18:38:40;9.40;99.90
4079;DHT22;2054;47.858;11.156;2024-02-15T18:41:12;9.20;99.90
4079;DHT22;2054;47.858;11.156;2024-02-15T18:43:39;9.30;99.90
4079;DHT22;2054;47.858;11.156;2024-02-15T18:46:06;9.10;99.90
4079;DHT22;2054;47.858;11.156;2024-02-15T18:48:34;9.10;99.90
4079;DHT22;2054;47.858;11.156;2024-02-15T18:51:07;9.20;99.90
4079;DHT22;2054;47.858;11.156;2024-02-15T18:53:34;8.90;99.90
4079;DHT22;2054;47.858;11.156;2024-02-15T18:56:01;9.00;99.90
4079;DHT22;2054;47.858;11.156;2024-02-15T18:58:30;8.80;99.90
4079;DHT22;2054;47.858;11.156;2024-02-15T19:00:58;8.80;99.90
4079;DHT22;2054;47.858;11.156;2024-02-15T19:03:26;8.80;99.90
4079;DHT22;2054;47.858;11.156;2024-02-15T19:05:53;8.90;99.90
4079;DHT22;2054;47.858;11.156;2024-02-15T19:08:22;8.70;99.90
4079;DHT22;2054;47.858;11.156;2024-02-15T19:10:49;8.70;99.90
4079;DHT22;2054;47.858;11.156;2024-02-15T19:13:16;8.60;99.90
4079;DHT22;2054;47.858;11.156;2024-02-15T19:15:44;8.60;99.90
4079;DHT22;2054;47.858;11.156;2024-02-15T19:18:12;8.70;99.90
4079;DHT22;2054;47.858;11.156;2024-02-15T19:20:39;8.50;99.90
4079;DHT22;2054;47.858;11.156;2024-02-15T19:23:06;8.70;99.90
4079;DHT22;2054;47.858;11.156;2024-02-15T19:25:36;8.50;99.90
4079;DHT22;2054;47.858;11.156;2024-02-15T19:28:03;8.50;99.90
4079;DHT22;2054;47.858;11.156;2024-02-15T19:30:32;8.50;99.90
4079;DHT22;2054;47.858;11.156;2024-02-15T19:33:01;8.50;99.90
4079;DHT22;2054;47.858;11.156;2024-02-15T19:35:28;8.40;99.90
4079;DHT22;2054;47.858;11.156;2024-02-15T19:37:57;8.40;99.90
4079;DHT22;2054;47.858;11.156;2024-02-15T19:40:24;8.40;99.90
4079;DHT22;2054;47.858;11.156;2024-02-15T19:42:52;8.40;99.90
4079;DHT22;2054;47.858;11.156;2024-02-15T19:45:21;8.30;99.90
4079;DHT22;2054;47.858;11.156;2024-02-15T19:47:48;8.00;99.90
4079;DHT22;2054;47.858;11.156;2024-02-15T19:50:15;8.00;99.90
4079;DHT22;2054;47.858;11.156;2024-02-15T19:52:46;8.00;99.90
4079;DHT22;2054;47.858;11.156;2024-02-15T19:55:14;8.00;99.90
4079;DHT22;2054;47.858;11.156;2024-02-15T19:57:42;7.90;99.90
4079;DHT22;2054;47.858;11.156;2024-02-15T20:00:12;7.90;99.90